sensor_id;sensor_type;location;lat;lon;timestamp;temperature;humidity
61400;DHT22;47269;48.182;-1.946;2023-04-25T06:01:56;6.80;99.90
61400;DHT22;47269;48.182;-1.946;2023-04-25T06:04:22;6.90;99.90
61400;DHT22;47269;48.182;-1.946;2023-04-25T06:06:49;6.90;99.90
61400;DHT22;47269;48.182;-1.946;2023-04-25T06:09:14;7.00;99.90
61400;DHT22;47269;48.182;-1.946;2023-04-25T06:11:40;7.00;99.90
61400;DHT22;47269;48.182;-1.946;2023-04-25T06:14:06;6.90;99.90
61400;DHT22;47269;48.182;-1.946;2023-04-25T06:16:32;7.00;99.90
61400;DHT22;47269;48.182;-1.946;2023-04-25T06:18:57;7.20;99.90
61400;DHT22;47269;48.182;-1.946;2023-04-25T06:21:23;7.20;99.90
61400;DHT22;47269;48.182;-1.946;2023-04-25T06:23:49;7.20;99.90
61400;DHT22;47269;48.182;-1.946;2023-04-25T06:26:14;7.20;99.90
61400;DHT22;47269;48.182;-1.946;2023-04-25T06:28:40;7.20;99.90
61400;DHT22;47269;48.182;-1.946;2023-04-25T06:31:06;7.40;99.90
61400;DHT22;47269;48.182;-1.946;2023-04-25T06:33:31;7.40;99.90
61400;DHT22;47269;48.182;-1.946;2023-04-25T06:35:57;7.60;99.90
61400;DHT22;47269;48.182;-1.946;2023-04-25T06:38:23;8.00;99.90
61400;DHT22;47269;48.182;-1.946;2023-04-25T06:40:48;8.10;99.90
61400;DHT22;47269;48.182;-1.946;2023-04-25T06:43:14;8.30;99.90
61400;DHT22;47269;48.182;-1.946;2023-04-25T06:45:39;8.40;99.90
61400;DHT22;47269;48.182;-1.946;2023-04-25T06:48:05;8.60;99.90
61400;DHT22;47269;48.182;-1.946;2023-04-25T06:50:31;8.60;99.90
61400;DHT22;47269;48.182;-1.946;2023-04-25T06:52:56;8.80;99.90
61400;DHT22;47269;48.182;-1.946;2023-04-25T06:55:25;9.10;99.90
61400;DHT22;47269;48.182;-1.946;2023-04-25T06:57:51;9.80;99.90
61400;DHT22;47269;48.182;-1.946;2023-04-25T07:00:17;10.10;99.90
61400;DHT22;47269;48.182;-1.946;2023-04-25T07:02:42;10.40;99.90
61400;DHT22;47269;48.182;-1.946;2023-04-25T07:05:09;10.30;99.90
61400;DHT22;47269;48.182;-1.946;2023-04-25T07:07:34;10.00;99.90
61400;DHT22;47269;48.182;-1.946;2023-04-25T07:10:00;9.90;99.90
61400;DHT22;47269;48.182;-1.946;2023-04-25T07:12:26;9.90;99.90
61400;DHT22;47269;48.182;-1.946;2023-04-25T07:14:51;10.90;99.90
61400;DHT22;47269;48.182;-1.946;2023-04-25T07:17:17;11.40;99.90
61400;DHT22;47269;48.182;-1.946;2023-04-25T07:19:42;11.20;99.90
61400;DHT22;47269;48.182;-1.946;2023-04-25T07:22:10;10.80;99.90
61400;DHT22;47269;48.182;-1.946;2023-04-25T07:24:35;10.70;99.90
61400;DHT22;47269;48.182;-1.946;2023-04-25T07:27:01;10.60;99.90
61400;DHT22;47269;48.182;-1.946;2023-04-25T07:29:27;10.60;99.90
61400;DHT22;47269;48.182;-1.946;2023-04-25T07:31:53;10.20;99.90
61400;DHT22;47269;48.182;-1.946;2023-04-25T07:34:19;10.40;99.90
61400;DHT22;47269;48.182;-1.946;2023-04-25T07:36:45;10.40;99.90
61400;DHT22;47269;48.182;-1.946;2023-04-25T07:39:11;10.50;99.90
61400;DHT22;47269;48.182;-1.946;2023-04-25T07:41:36;10.90;99.90
61400;DHT22;47269;48.182;-1.946;2023-04-25T07:44:02;11.00;99.90
61400;DHT22;47269;48.182;-1.946;2023-04-25T07:46:28;11.00;99.90
61400;DHT22;47269;48.182;-1.946;2023-04-25T07:48:53;10.90;99.90
61400;DHT22;47269;48.182;-1.946;2023-04-25T07:51:19;11.00;99.90
61400;DHT22;47269;48.182;-1.946;2023-04-25T07:53:45;11.50;99.90
61400;DHT22;47269;48.182;-1.946;2023-04-25T07:56:11;11.40;99.90
61400;DHT22;47269;48.182;-1.946;2023-04-25T07:58:37;11.30;99.90
61400;DHT22;47269;48.182;-1.946;2023-04-25T08:01:03;11.10;99.90
61400;DHT22;47269;48.182;-1.946;2023-04-25T08:03:29;11.20;99.90
61400;DHT22;47269;48.182;-1.946;2023-04-25T08:05:54;11.10;99.90
61400;DHT22;47269;48.182;-1.946;2023-04-25T08:08:20;11.20;99.90
61400;DHT22;47269;48.182;-1.946;2023-04-25T08:10:46;11.20;99.90
61400;DHT22;47269;48.182;-1.946;2023-04-25T08:13:13;11.20;99.90
61400;DHT22;47269;48.182;-1.946;2023-04-25T08:15:39;11.00;99.90
61400;DHT22;47269;48.182;-1.946;2023-04-25T08:18:05;11.00;99.90
61400;DHT22;47269;48.182;-1.946;2023-04-25T08:20:30;11.10;99.90
61400;DHT22;47269;48.182;-1.946;2023-04-25T08:22:56;11.50;99.90
61400;DHT22;47269;48.182;-1.946;2023-04-25T08:25:22;12.30;99.90
61400;DHT22;47269;48.182;-1.946;2023-04-25T08:27:48;12.70;99.90
61400;DHT22;47269;48.182;-1.946;2023-04-25T08:30:13;12.50;99.90
61400;DHT22;47269;48.182;-1.946;2023-04-25T08:32:39;12.00;99.90
61400;DHT22;47269;48.182;-1.946;2023-04-25T08:35:05;12.30;99.90
61400;DHT22;47269;48.182;-1.946;2023-04-25T08:37:32;12.40;99.90
61400;DHT22;47269;48.182;-1.946;2023-04-25T08:39:58;12.50;99.90
61400;DHT22;47269;48.182;-1.946;2023-04-25T08:42:24;12.60;99.90
61400;DHT22;47269;48.182;-1.946;2023-04-25T08:44:53;13.50;99.90
61400;DHT22;47269;48.182;-1.946;2023-04-25T08:47:22;13.50;99.90
61400;DHT22;47269;48.182;-1.946;2023-04-25T08:49:48;13.30;99.90
61400;DHT22;47269;48.182;-1.946;2023-04-25T08:52:16;12.80;99.90
61400;DHT22;47269;48.182;-1.946;2023-04-25T08:54:48;12.50;99.90
61400;DHT22;47269;48.182;-1.946;2023-04-25T08:57:14;12.40;99.90
61400;DHT22;47269;48.182;-1.946;2023-04-25T08:59:41;12.70;99.90
61400;DHT22;47269;48.182;-1.946;2023-04-25T09:02:11;12.90;99.90
61400;DHT22;47269;48.182;-1.946;2023-04-25T09:04:40;14.10;99.90
61400;DHT22;47269;48.182;-1.946;2023-04-25T09:07:06;14.40;99.90
61400;DHT22;47269;48.182;-1.946;2023-04-25T09:09:32;13.70;99.90
61400;DHT22;47269;48.182;-1.946;2023-04-25T09:11:58;14.50;99.90
61400;DHT22;47269;48.182;-1.946;2023-04-25T09:14:25;14.60;99.90
61400;DHT22;47269;48.182;-1.946;2023-04-25T09:19:32;14.00;99.90
61400;DHT22;47269;48.182;-1.946;2023-04-25T09:22:00;15.50;99.90
61400;DHT22;47269;48.182;-1.946;2023-04-25T09:26:58;15.30;99.90
61400;DHT22;47269;48.182;-1.946;2023-04-25T09:29:34;15.30;99.90
61400;DHT22;47269;48.182;-1.946;2023-04-25T09:32:19;16.20;99.90
61400;DHT22;47269;48.182;-1.946;2023-04-25T09:34:55;16.20;99.90
61400;DHT22;47269;48.182;-1.946;2023-04-25T09:37:23;16.80;99.90
61400;DHT22;47269;48.182;-1.946;2023-04-25T09:39:54;17.30;99.90
61400;DHT22;47269;48.182;-1.946;2023-04-25T09:42:24;19.30;99.90
61400;DHT22;47269;48.182;-1.946;2023-04-25T09:44:55;20.30;99.90
61400;DHT22;47269;48.182;-1.946;2023-04-25T09:47:24;20.00;99.90
61400;DHT22;47269;48.182;-1.946;2023-04-25T09:49:50;19.70;99.90
61400;DHT22;47269;48.182;-1.946;2023-04-25T09:52:18;17.70;99.90
61400;DHT22;47269;48.182;-1.946;2023-04-25T09:54:45;17.30;99.90
61400;DHT22;47269;48.182;-1.946;2023-04-25T09:57:19;16.30;99.90
61400;DHT22;47269;48.182;-1.946;2023-04-25T09:59:50;16.10;99.90
61400;DHT22;47269;48.182;-1.946;2023-04-25T10:02:22;18.00;99.90
61400;DHT22;47269;48.182;-1.946;2023-04-25T10:04:49;17.70;99.90
61400;DHT22;47269;48.182;-1.946;2023-04-25T10:07:18;18.90;99.90
61400;DHT22;47269;48.182;-1.946;2023-04-25T10:09:48;20.80;99.90
61400;DHT22;47269;48.182;-1.946;2023-04-25T10:12:16;20.90;99.90
61400;DHT22;47269;48.182;-1.946;2023-04-25T10:14:42;19.30;99.90
61400;DHT22;47269;48.182;-1.946;2023-04-25T10:17:10;17.50;99.90
61400;DHT22;47269;48.182;-1.946;2023-04-25T10:19:39;16.50;99.90
61400;DHT22;47269;48.182;-1.946;2023-04-25T10:22:13;16.10;99.90
61400;DHT22;47269;48.182;-1.946;2023-04-25T10:24:41;15.50;99.90
61400;DHT22;47269;48.182;-1.946;2023-04-25T10:27:07;15.20;99.90
61400;DHT22;47269;48.182;-1.946;2023-04-25T10:29:33;14.70;99.90
61400;DHT22;47269;48.182;-1.946;2023-04-25T10:32:00;15.10;99.90
61400;DHT22;47269;48.182;-1.946;2023-04-25T10:34:40;15.00;99.90
61400;DHT22;47269;48.182;-1.946;2023-04-25T10:37:09;14.40;99.90
61400;DHT22;47269;48.182;-1.946;2023-04-25T10:39:41;14.30;99.90
61400;DHT22;47269;48.182;-1.946;2023-04-25T10:42:07;14.60;99.90
61400;DHT22;47269;48.182;-1.946;2023-04-25T10:44:33;15.30;99.90
61400;DHT22;47269;48.182;-1.946;2023-04-25T10:47:01;16.40;99.90
61400;DHT22;47269;48.182;-1.946;2023-04-25T10:49:41;16.40;99.90
61400;DHT22;47269;48.182;-1.946;2023-04-25T10:52:34;18.50;99.90
61400;DHT22;47269;48.182;-1.946;2023-04-25T10:55:03;19.40;99.90
61400;DHT22;47269;48.182;-1.946;2023-04-25T10:57:44;17.60;99.90
61400;DHT22;47269;48.182;-1.946;2023-04-25T11:00:18;17.00;99.90
61400;DHT22;47269;48.182;-1.946;2023-04-25T11:02:51;19.20;99.90
61400;DHT22;47269;48.182;-1.946;2023-04-25T11:05:34;18.10;99.90
61400;DHT22;47269;48.182;-1.946;2023-04-25T11:08:00;16.80;99.90
61400;DHT22;47269;48.182;-1.946;2023-04-25T11:10:27;16.30;99.90
61400;DHT22;47269;48.182;-1.946;2023-04-25T11:12:53;17.40;99.90
61400;DHT22;47269;48.182;-1.946;2023-04-25T11:15:18;17.10;99.90
61400;DHT22;47269;48.182;-1.946;2023-04-25T11:17:44;16.50;99.90
61400;DHT22;47269;48.182;-1.946;2023-04-25T11:20:15;16.50;99.90
61400;DHT22;47269;48.182;-1.946;2023-04-25T11:22:44;16.40;99.90
61400;DHT22;47269;48.182;-1.946;2023-04-25T11:25:11;16.50;99.90
61400;DHT22;47269;48.182;-1.946;2023-04-25T11:27:54;17.00;99.90
61400;DHT22;47269;48.182;-1.946;2023-04-25T11:30:20;16.90;99.90
61400;DHT22;47269;48.182;-1.946;2023-04-25T11:32:46;17.70;99.90
61400;DHT22;47269;48.182;-1.946;2023-04-25T11:35:13;17.70;99.90
61400;DHT22;47269;48.182;-1.946;2023-04-25T11:37:40;18.00;99.90
61400;DHT22;47269;48.182;-1.946;2023-04-25T11:40:06;20.30;99.90
61400;DHT22;47269;48.182;-1.946;2023-04-25T11:42:34;20.60;99.90
61400;DHT22;47269;48.182;-1.946;2023-04-25T11:45:00;19.50;99.90
61400;DHT22;47269;48.182;-1.946;2023-04-25T11:47:33;18.60;99.90
61400;DHT22;47269;48.182;-1.946;2023-04-25T11:49:59;17.80;99.90
61400;DHT22;47269;48.182;-1.946;2023-04-25T11:52:42;17.50;99.90
61400;DHT22;47269;48.182;-1.946;2023-04-25T11:55:13;16.70;99.90
61400;DHT22;47269;48.182;-1.946;2023-04-25T11:57:40;17.40;99.90
61400;DHT22;47269;48.182;-1.946;2023-04-25T12:00:26;17.20;99.90
61400;DHT22;47269;48.182;-1.946;2023-04-25T12:02:54;17.00;99.90
61400;DHT22;47269;48.182;-1.946;2023-04-25T12:05:23;17.40;99.90
61400;DHT22;47269;48.182;-1.946;2023-04-25T12:07:49;17.30;99.90
61400;DHT22;47269;48.182;-1.946;2023-04-25T12:10:16;17.90;99.90
61400;DHT22;47269;48.182;-1.946;2023-04-25T12:12:47;17.30;99.90
61400;DHT22;47269;48.182;-1.946;2023-04-25T12:17:41;17.70;99.90
61400;DHT22;47269;48.182;-1.946;2023-04-25T12:20:13;18.10;99.90
61400;DHT22;47269;48.182;-1.946;2023-04-25T12:22:41;17.90;99.90
61400;DHT22;47269;48.182;-1.946;2023-04-25T12:25:13;16.90;99.90
61400;DHT22;47269;48.182;-1.946;2023-04-25T12:28:18;17.10;99.90
61400;DHT22;47269;48.182;-1.946;2023-04-25T12:30:58;17.40;99.90
61400;DHT22;47269;48.182;-1.946;2023-04-25T12:33:25;17.50;99.90
61400;DHT22;47269;48.182;-1.946;2023-04-25T12:35:52;17.90;99.90
61400;DHT22;47269;48.182;-1.946;2023-04-25T12:38:26;17.90;99.90
61400;DHT22;47269;48.182;-1.946;2023-04-25T12:40:52;17.10;99.90
61400;DHT22;47269;48.182;-1.946;2023-04-25T12:43:18;17.20;99.90
61400;DHT22;47269;48.182;-1.946;2023-04-25T12:45:46;17.20;99.90
61400;DHT22;47269;48.182;-1.946;2023-04-25T12:48:16;17.50;99.90
61400;DHT22;47269;48.182;-1.946;2023-04-25T12:50:43;18.00;99.90
61400;DHT22;47269;48.182;-1.946;2023-04-25T12:53:09;18.10;99.90
61400;DHT22;47269;48.182;-1.946;2023-04-25T12:55:35;18.10;99.90
61400;DHT22;47269;48.182;-1.946;2023-04-25T12:58:01;18.30;99.90
61400;DHT22;47269;48.182;-1.946;2023-04-25T13:00:26;18.10;99.90
61400;DHT22;47269;48.182;-1.946;2023-04-25T13:02:52;17.80;99.90
61400;DHT22;47269;48.182;-1.946;2023-04-25T13:05:18;17.20;99.90
61400;DHT22;47269;48.182;-1.946;2023-04-25T13:07:43;17.20;99.90
61400;DHT22;47269;48.182;-1.946;2023-04-25T13:10:09;17.00;99.90
61400;DHT22;47269;48.182;-1.946;2023-04-25T13:12:36;17.40;99.90
61400;DHT22;47269;48.182;-1.946;2023-04-25T13:15:01;17.80;99.90
61400;DHT22;47269;48.182;-1.946;2023-04-25T13:17:27;17.90;99.90
61400;DHT22;47269;48.182;-1.946;2023-04-25T13:19:52;17.60;99.90
61400;DHT22;47269;48.182;-1.946;2023-04-25T13:22:18;17.90;99.90
61400;DHT22;47269;48.182;-1.946;2023-04-25T13:24:48;17.50;99.90
61400;DHT22;47269;48.182;-1.946;2023-04-25T13:27:14;17.80;99.90
61400;DHT22;47269;48.182;-1.946;2023-04-25T13:29:39;18.10;99.90
61400;DHT22;47269;48.182;-1.946;2023-04-25T13:32:06;17.90;99.90
61400;DHT22;47269;48.182;-1.946;2023-04-25T13:34:32;17.70;99.90
61400;DHT22;47269;48.182;-1.946;2023-04-25T13:36:58;17.80;99.90
61400;DHT22;47269;48.182;-1.946;2023-04-25T13:39:24;17.90;99.90
61400;DHT22;47269;48.182;-1.946;2023-04-25T13:41:49;17.60;99.90
61400;DHT22;47269;48.182;-1.946;2023-04-25T13:44:15;17.40;99.90
61400;DHT22;47269;48.182;-1.946;2023-04-25T13:46:41;17.00;99.90
61400;DHT22;47269;48.182;-1.946;2023-04-25T13:49:07;17.10;99.90
61400;DHT22;47269;48.182;-1.946;2023-04-25T13:51:33;17.00;99.90
61400;DHT22;47269;48.182;-1.946;2023-04-25T13:53:58;17.00;99.90
61400;DHT22;47269;48.182;-1.946;2023-04-25T13:56:24;17.20;99.90
61400;DHT22;47269;48.182;-1.946;2023-04-25T13:58:50;17.60;99.90
61400;DHT22;47269;48.182;-1.946;2023-04-25T14:01:17;17.60;99.90
61400;DHT22;47269;48.182;-1.946;2023-04-25T14:03:43;17.70;99.90
61400;DHT22;47269;48.182;-1.946;2023-04-25T14:06:08;18.40;99.90
61400;DHT22;47269;48.182;-1.946;2023-04-25T14:08:34;18.40;99.90
61400;DHT22;47269;48.182;-1.946;2023-04-25T14:11:00;18.20;99.90
61400;DHT22;47269;48.182;-1.946;2023-04-25T14:13:26;18.10;99.90
61400;DHT22;47269;48.182;-1.946;2023-04-25T14:15:52;17.80;99.90
61400;DHT22;47269;48.182;-1.946;2023-04-25T14:18:18;17.70;99.90
61400;DHT22;47269;48.182;-1.946;2023-04-25T14:20:45;17.10;99.90
61400;DHT22;47269;48.182;-1.946;2023-04-25T14:23:11;17.20;99.90
61400;DHT22;47269;48.182;-1.946;2023-04-25T14:25:36;17.20;99.90
61400;DHT22;47269;48.182;-1.946;2023-04-25T14:28:03;16.90;99.90
61400;DHT22;47269;48.182;-1.946;2023-04-25T14:30:29;16.90;99.90
61400;DHT22;47269;48.182;-1.946;2023-04-25T14:32:54;16.40;99.90
61400;DHT22;47269;48.182;-1.946;2023-04-25T14:35:20;16.20;99.90
61400;DHT22;47269;48.182;-1.946;2023-04-25T14:37:46;16.30;99.90
61400;DHT22;47269;48.182;-1.946;2023-04-25T14:40:13;16.40;99.90
61400;DHT22;47269;48.182;-1.946;2023-04-25T14:42:40;16.50;99.90
61400;DHT22;47269;48.182;-1.946;2023-04-25T14:45:07;16.60;99.90
61400;DHT22;47269;48.182;-1.946;2023-04-25T14:47:34;17.20;99.90
61400;DHT22;47269;48.182;-1.946;2023-04-25T14:50:00;16.90;99.90
61400;DHT22;47269;48.182;-1.946;2023-04-25T14:52:26;17.20;99.90
61400;DHT22;47269;48.182;-1.946;2023-04-25T14:54:55;17.20;99.90
61400;DHT22;47269;48.182;-1.946;2023-04-25T14:57:21;16.80;99.90
61400;DHT22;47269;48.182;-1.946;2023-04-25T14:59:47;16.70;99.90
61400;DHT22;47269;48.182;-1.946;2023-04-25T15:02:12;16.50;99.90
61400;DHT22;47269;48.182;-1.946;2023-04-25T15:04:38;16.60;99.90
61400;DHT22;47269;48.182;-1.946;2023-04-25T15:07:04;16.50;99.90
61400;DHT22;47269;48.182;-1.946;2023-04-25T15:09:30;16.00;99.90
61400;DHT22;47269;48.182;-1.946;2023-04-25T15:11:57;15.90;99.90
61400;DHT22;47269;48.182;-1.946;2023-04-25T15:14:22;15.90;99.90
61400;DHT22;47269;48.182;-1.946;2023-04-25T15:16:48;15.70;99.90
61400;DHT22;47269;48.182;-1.946;2023-04-25T15:19:14;15.60;99.90
61400;DHT22;47269;48.182;-1.946;2023-04-25T15:21:40;15.80;99.90
61400;DHT22;47269;48.182;-1.946;2023-04-25T15:24:06;16.00;99.90
61400;DHT22;47269;48.182;-1.946;2023-04-25T15:26:31;15.40;99.90
61400;DHT22;47269;48.182;-1.946;2023-04-25T15:28:57;15.20;99.90
61400;DHT22;47269;48.182;-1.946;2023-04-25T15:31:23;15.00;99.90
61400;DHT22;47269;48.182;-1.946;2023-04-25T15:33:48;15.30;99.90
61400;DHT22;47269;48.182;-1.946;2023-04-25T15:36:14;15.30;99.90
61400;DHT22;47269;48.182;-1.946;2023-04-25T15:38:42;15.30;99.90
61400;DHT22;47269;48.182;-1.946;2023-04-25T15:41:08;15.20;99.90
61400;DHT22;47269;48.182;-1.946;2023-04-25T15:43:34;15.00;99.90
61400;DHT22;47269;48.182;-1.946;2023-04-25T15:46:05;15.10;99.90
61400;DHT22;47269;48.182;-1.946;2023-04-25T15:48:31;15.10;99.90
61400;DHT22;47269;48.182;-1.946;2023-04-25T15:50:57;15.20;99.90
61400;DHT22;47269;48.182;-1.946;2023-04-25T15:53:23;15.20;99.90
61400;DHT22;47269;48.182;-1.946;2023-04-25T15:55:49;15.00;99.90
61400;DHT22;47269;48.182;-1.946;2023-04-25T15:58:15;14.70;99.90
61400;DHT22;47269;48.182;-1.946;2023-04-25T16:00:41;14.80;99.90
61400;DHT22;47269;48.182;-1.946;2023-04-25T16:03:07;15.10;99.90
61400;DHT22;47269;48.182;-1.946;2023-04-25T16:05:33;15.10;99.90
61400;DHT22;47269;48.182;-1.946;2023-04-25T16:07:59;15.00;99.90
61400;DHT22;47269;48.182;-1.946;2023-04-25T16:10:25;14.90;99.90
61400;DHT22;47269;48.182;-1.946;2023-04-25T16:12:50;14.90;99.90
61400;DHT22;47269;48.182;-1.946;2023-04-25T16:15:16;14.80;99.90
61400;DHT22;47269;48.182;-1.946;2023-04-25T16:17:42;15.00;99.90
61400;DHT22;47269;48.182;-1.946;2023-04-25T16:20:08;15.20;99.90
61400;DHT22;47269;48.182;-1.946;2023-04-25T16:22:38;14.90;99.90
61400;DHT22;47269;48.182;-1.946;2023-04-25T16:25:04;15.00;99.90
61400;DHT22;47269;48.182;-1.946;2023-04-25T16:27:30;15.00;99.90
61400;DHT22;47269;48.182;-1.946;2023-04-25T16:29:56;14.80;99.90
61400;DHT22;47269;48.182;-1.946;2023-04-25T16:32:22;14.80;99.90
61400;DHT22;47269;48.182;-1.946;2023-04-25T16:34:47;14.80;99.90
61400;DHT22;47269;48.182;-1.946;2023-04-25T16:37:13;14.90;99.90
61400;DHT22;47269;48.182;-1.946;2023-04-25T16:39:39;15.00;99.90
61400;DHT22;47269;48.182;-1.946;2023-04-25T16:42:05;15.00;99.90
61400;DHT22;47269;48.182;-1.946;2023-04-25T16:44:31;15.00;99.90
61400;DHT22;47269;48.182;-1.946;2023-04-25T16:46:56;15.10;99.90
61400;DHT22;47269;48.182;-1.946;2023-04-25T16:49:22;15.00;99.90
61400;DHT22;47269;48.182;-1.946;2023-04-25T16:51:48;14.90;99.90
61400;DHT22;47269;48.182;-1.946;2023-04-25T16:54:13;14.80;99.90
61400;DHT22;47269;48.182;-1.946;2023-04-25T16:56:39;15.00;99.90
61400;DHT22;47269;48.182;-1.946;2023-04-25T16:59:06;14.90;99.90
61400;DHT22;47269;48.182;-1.946;2023-04-25T17:01:31;14.90;99.90
61400;DHT22;47269;48.182;-1.946;2023-04-25T17:03:57;14.80;99.90
61400;DHT22;47269;48.182;-1.946;2023-04-25T17:06:23;14.90;99.90
61400;DHT22;47269;48.182;-1.946;2023-04-25T17:08:49;14.90;99.90
61400;DHT22;47269;48.182;-1.946;2023-04-25T17:11:15;15.00;99.90
61400;DHT22;47269;48.182;-1.946;2023-04-25T17:13:41;14.90;99.90
61400;DHT22;47269;48.182;-1.946;2023-04-25T17:16:08;14.70;99.90
61400;DHT22;47269;48.182;-1.946;2023-04-25T17:18:36;14.60;99.90
61400;DHT22;47269;48.182;-1.946;2023-04-25T17:21:03;14.60;99.90
61400;DHT22;47269;48.182;-1.946;2023-04-25T17:23:28;14.50;99.90
61400;DHT22;47269;48.182;-1.946;2023-04-25T17:25:57;14.60;99.90
61400;DHT22;47269;48.182;-1.946;2023-04-25T17:28:23;14.40;99.90
61400;DHT22;47269;48.182;-1.946;2023-04-25T17:30:48;14.50;99.90
61400;DHT22;47269;48.182;-1.946;2023-04-25T17:33:14;14.50;99.90
61400;DHT22;47269;48.182;-1.946;2023-04-25T17:35:40;14.40;99.90
61400;DHT22;47269;48.182;-1.946;2023-04-25T17:38:05;14.40;99.90
61400;DHT22;47269;48.182;-1.946;2023-04-25T17:40:31;14.30;99.90
61400;DHT22;47269;48.182;-1.946;2023-04-25T17:42:57;14.40;99.90
61400;DHT22;47269;48.182;-1.946;2023-04-25T17:45:23;14.50;99.90
61400;DHT22;47269;48.182;-1.946;2023-04-25T17:47:48;14.30;99.90
61400;DHT22;47269;48.182;-1.946;2023-04-25T17:50:14;14.20;99.90
61400;DHT22;47269;48.182;-1.946;2023-04-25T17:52:42;14.10;99.90
61400;DHT22;47269;48.182;-1.946;2023-04-25T17:55:09;14.00;99.90
61400;DHT22;47269;48.182;-1.946;2023-04-25T17:57:35;14.00;99.90
61400;DHT22;47269;48.182;-1.946;2023-04-25T18:00:01;14.00;99.90
61400;DHT22;47269;48.182;-1.946;2023-04-25T18:02:26;14.00;99.90
61400;DHT22;47269;48.182;-1.946;2023-04-25T18:04:52;13.90;99.90
61400;DHT22;47269;48.182;-1.946;2023-04-25T18:07:18;13.90;99.90
61400;DHT22;47269;48.182;-1.946;2023-04-25T18:09:43;13.90;99.90
61400;DHT22;47269;48.182;-1.946;2023-04-25T18:12:10;13.80;99.90
61400;DHT22;47269;48.182;-1.946;2023-04-25T18:14:36;13.80;99.90
61400;DHT22;47269;48.182;-1.946;2023-04-25T18:17:02;13.80;99.90
61400;DHT22;47269;48.182;-1.946;2023-04-25T18:19:32;13.80;99.90
61400;DHT22;47269;48.182;-1.946;2023-04-25T18:21:59;13.80;99.90
61400;DHT22;47269;48.182;-1.946;2023-04-25T18:24:25;13.70;99.90
61400;DHT22;47269;48.182;-1.946;2023-04-25T18:26:52;13.60;99.90
61400;DHT22;47269;48.182;-1.946;2023-04-25T18:29:19;13.50;99.90
61400;DHT22;47269;48.182;-1.946;2023-04-25T18:31:46;13.50;99.90
61400;DHT22;47269;48.182;-1.946;2023-04-25T18:34:12;13.60;99.90
61400;DHT22;47269;48.182;-1.946;2023-04-25T18:36:39;13.60;99.90
61400;DHT22;47269;48.182;-1.946;2023-04-25T18:39:05;13.50;99.90
61400;DHT22;47269;48.182;-1.946;2023-04-25T18:41:35;13.50;99.90
61400;DHT22;47269;48.182;-1.946;2023-04-25T18:44:01;13.50;99.90
61400;DHT22;47269;48.182;-1.946;2023-04-25T18:46:31;13.50;99.90
61400;DHT22;47269;48.182;-1.946;2023-04-25T18:48:58;13.50;99.90
61400;DHT22;47269;48.182;-1.946;2023-04-25T18:51:24;13.40;99.90
61400;DHT22;47269;48.182;-1.946;2023-04-25T18:53:59;13.40;99.90
61400;DHT22;47269;48.182;-1.946;2023-04-25T18:56:25;13.40;99.90
61400;DHT22;47269;48.182;-1.946;2023-04-25T18:58:52;13.30;99.90
61400;DHT22;47269;48.182;-1.946;2023-04-25T19:01:19;13.20;99.90
61400;DHT22;47269;48.182;-1.946;2023-04-25T19:03:47;13.30;99.90
61400;DHT22;47269;48.182;-1.946;2023-04-25T19:06:23;13.20;99.90
61400;DHT22;47269;48.182;-1.946;2023-04-25T19:08:50;13.20;99.90
61400;DHT22;47269;48.182;-1.946;2023-04-25T19:11:17;13.20;99.90
61400;DHT22;47269;48.182;-1.946;2023-04-25T19:13:44;13.20;99.90
61400;DHT22;47269;48.182;-1.946;2023-04-25T19:16:10;13.20;99.90
61400;DHT22;47269;48.182;-1.946;2023-04-25T19:18:36;13.10;99.90
61400;DHT22;47269;48.182;-1.946;2023-04-25T19:21:02;13.20;99.90
61400;DHT22;47269;48.182;-1.946;2023-04-25T19:23:29;13.10;99.90
61400;DHT22;47269;48.182;-1.946;2023-04-25T19:25:56;13.00;99.90
61400;DHT22;47269;48.182;-1.946;2023-04-25T19:28:21;13.00;99.90
61400;DHT22;47269;48.182;-1.946;2023-04-25T19:30:47;13.00;99.90
61400;DHT22;47269;48.182;-1.946;2023-04-25T19:33:13;13.00;99.90
61400;DHT22;47269;48.182;-1.946;2023-04-25T19:35:39;13.00;99.90
61400;DHT22;47269;48.182;-1.946;2023-04-25T19:38:05;13.00;99.90
61400;DHT22;47269;48.182;-1.946;2023-04-25T19:40:31;12.90;99.90
61400;DHT22;47269;48.182;-1.946;2023-04-25T19:42:57;12.90;99.90
61400;DHT22;47269;48.182;-1.946;2023-04-25T19:45:23;12.90;99.90
61400;DHT22;47269;48.182;-1.946;2023-04-25T19:47:49;12.90;99.90
61400;DHT22;47269;48.182;-1.946;2023-04-25T19:50:14;12.90;99.90
61400;DHT22;47269;48.182;-1.946;2023-04-25T19:52:40;12.90;99.90
61400;DHT22;47269;48.182;-1.946;2023-04-25T19:55:06;12.90;99.90
61400;DHT22;47269;48.182;-1.946;2023-04-25T19:57:35;12.80;99.90
61400;DHT22;47269;48.182;-1.946;2023-04-25T20:00:06;12.80;99.90
61400;DHT22;47269;48.182;-1.946;2023-04-25T20:02:33;12.80;99.90
61400;DHT22;47269;48.182;-1.946;2023-04-25T20:04:59;12.80;99.90
61400;DHT22;47269;48.182;-1.946;2023-04-25T20:07:26;12.70;99.90
61400;DHT22;47269;48.182;-1.946;2023-04-25T20:09:52;12.80;99.90
61400;DHT22;47269;48.182;-1.946;2023-04-25T20:12:18;12.80;99.90
61400;DHT22;47269;48.182;-1.946;2023-04-25T20:14:44;12.80;99.90
61400;DHT22;47269;48.182;-1.946;2023-04-25T20:17:10;12.80;99.90
61400;DHT22;47269;48.182;-1.946;2023-04-25T20:19:36;12.70;99.90
61400;DHT22;47269;48.182;-1.946;2023-04-25T20:22:02;12.70;99.90
61400;DHT22;47269;48.182;-1.946;2023-04-25T20:24:28;12.70;99.90
61400;DHT22;47269;48.182;-1.946;2023-04-25T20:26:54;12.70;99.90
61400;DHT22;47269;48.182;-1.946;2023-04-25T20:29:23;12.70;99.90
61400;DHT22;47269;48.182;-1.946;2023-04-25T20:31:50;12.70;99.90
61400;DHT22;47269;48.182;-1.946;2023-04-25T20:34:20;12.70;99.90
61400;DHT22;47269;48.182;-1.946;2023-04-25T20:36:46;12.60;99.90
61400;DHT22;47269;48.182;-1.946;2023-04-25T20:39:12;12.70;99.90
61400;DHT22;47269;48.182;-1.946;2023-04-25T20:41:39;12.60;99.90
61400;DHT22;47269;48.182;-1.946;2023-04-25T20:44:05;12.60;99.90
61400;DHT22;47269;48.182;-1.946;2023-04-25T20:46:32;12.60;99.90
61400;DHT22;47269;48.182;-1.946;2023-04-25T20:48:59;12.50;99.90
61400;DHT22;47269;48.182;-1.946;2023-04-25T20:51:28;12.60;99.90
61400;DHT22;47269;48.182;-1.946;2023-04-25T20:53:55;12.60;99.90
61400;DHT22;47269;48.182;-1.946;2023-04-25T20:56:21;12.50;99.90
61400;DHT22;47269;48.182;-1.946;2023-04-25T20:58:51;12.50;99.90
61400;DHT22;47269;48.182;-1.946;2023-04-25T21:01:18;12.40;99.90
61400;DHT22;47269;48.182;-1.946;2023-04-25T21:03:44;12.40;99.90
61400;DHT22;47269;48.182;-1.946;2023-04-25T21:06:12;12.40;99.90
61400;DHT22;47269;48.182;-1.946;2023-04-25T21:08:38;12.40;99.90
61400;DHT22;47269;48.182;-1.946;2023-04-25T21:11:03;12.40;99.90
61400;DHT22;47269;48.182;-1.946;2023-04-25T21:13:29;12.40;99.90
61400;DHT22;47269;48.182;-1.946;2023-04-25T21:15:55;12.40;99.90
61400;DHT22;47269;48.182;-1.946;2023-04-25T21:18:21;12.30;99.90
61400;DHT22;47269;48.182;-1.946;2023-04-25T21:20:47;12.30;99.90
61400;DHT22;47269;48.182;-1.946;2023-04-25T21:23:12;12.30;99.90
61400;DHT22;47269;48.182;-1.946;2023-04-25T21:25:38;12.30;99.90